createdAt,value
2022-11-06T00:00:47.746Z,3.93
2022-11-06T00:03:18.169Z,3.94
2022-11-06T00:06:04.219Z,3.92
2022-11-06T00:08:35.006Z,3.91
2022-11-06T00:11:09.517Z,3.90
2022-11-06T00:13:38.232Z,3.91
2022-11-06T00:16:10.086Z,3.93
2022-11-06T00:18:39.870Z,3.94
2022-11-06T00:21:09.529Z,3.95
2022-11-06T00:23:38.322Z,3.95
2022-11-06T00:26:08.437Z,3.92
2022-11-06T00:28:37.703Z,3.90
2022-11-06T00:31:10.008Z,3.91
2022-11-06T00:33:39.810Z,3.89
2022-11-06T00:36:16.716Z,3.87
2022-11-06T00:41:20.362Z,3.93
2022-11-06T00:46:47.111Z,3.96
2022-11-06T00:49:15.725Z,3.96
2022-11-06T00:51:44.360Z,3.98
2022-11-06T00:54:14.752Z,3.96
2022-11-06T00:56:43.392Z,3.92
2022-11-06T00:59:14.392Z,3.91
2022-11-06T01:01:49.221Z,3.89
2022-11-06T01:04:20.142Z,3.91
2022-11-06T01:06:51.149Z,3.91
2022-11-06T01:09:22.151Z,3.90
2022-11-06T01:12:12.469Z,3.87
2022-11-06T01:14:41.246Z,3.82
2022-11-06T01:17:11.340Z,3.84
2022-11-06T01:19:40.227Z,3.86
2022-11-06T01:22:08.939Z,3.84
2022-11-06T01:24:37.756Z,3.83
2022-11-06T01:29:55.319Z,3.78
2022-11-06T01:32:25.407Z,3.82
2022-11-06T01:34:54.120Z,3.77
2022-11-06T01:37:22.763Z,3.76
2022-11-06T01:39:51.758Z,3.76
2022-11-06T01:42:22.001Z,3.74
2022-11-06T01:45:27.102Z,3.71
2022-11-06T01:47:57.660Z,3.33
2022-11-06T01:50:26.819Z,3.71
2022-11-06T01:52:55.857Z,3.71
2022-11-06T01:55:30.551Z,3.70
2022-11-06T01:58:01.331Z,3.67
2022-11-06T02:00:31.189Z,3.63
2022-11-06T02:03:02.578Z,3.10
2022-11-06T02:05:31.897Z,3.60
2022-11-06T02:08:02.080Z,3.57
2022-11-06T02:10:31.575Z,3.58
2022-11-06T02:13:14.241Z,3.59
2022-11-06T02:15:49.644Z,3.59
2022-11-06T02:18:41.203Z,3.59
2022-11-06T02:21:38.683Z,3.48
2022-11-06T02:24:43.890Z,2.38
2022-11-06T02:27:18.057Z,3.43
2022-11-06T02:29:51.848Z,3.64
2022-11-06T02:32:27.360Z,3.24
2022-11-06T02:34:59.264Z,3.62
2022-11-06T02:37:31.741Z,3.59
2022-11-06T02:40:05.652Z,3.58
2022-11-06T02:42:43.706Z,2.64
2022-11-06T02:45:15.239Z,3.54
2022-11-06T02:47:45.946Z,3.54
2022-11-06T02:50:20.616Z,3.55
2022-11-06T02:52:54.626Z,3.53
2022-11-06T02:55:29.646Z,3.55
2022-11-06T02:58:07.845Z,3.56
2022-11-06T03:00:38.808Z,3.61
2022-11-06T03:03:12.912Z,3.68
2022-11-06T03:05:48.235Z,3.76
2022-11-06T03:08:25.170Z,3.86
2022-11-06T03:11:00.523Z,3.94
2022-11-06T03:13:43.765Z,3.93
2022-11-06T03:16:24.531Z,3.97
2022-11-06T03:19:01.270Z,3.96
2022-11-06T03:21:36.208Z,3.88
2022-11-06T03:24:12.178Z,3.80
2022-11-06T03:26:46.487Z,3.84
2022-11-06T03:29:22.182Z,3.87
2022-11-06T03:31:55.017Z,3.88
2022-11-06T03:34:30.422Z,3.90
2022-11-06T03:37:04.975Z,3.93
2022-11-06T03:39:36.965Z,3.92
2022-11-06T03:42:09.176Z,3.94
2022-11-06T03:44:48.015Z,4.04
2022-11-06T03:47:22.357Z,4.12
2022-11-06T03:49:57.568Z,4.17
2022-11-06T03:52:32.563Z,4.20
2022-11-06T03:55:06.900Z,4.20
2022-11-06T03:57:42.316Z,4.10
2022-11-06T04:00:14.256Z,4.02
2022-11-06T04:02:50.195Z,3.98
2022-11-06T04:05:22.651Z,3.95
2022-11-06T04:08:14.535Z,3.90
2022-11-06T04:11:07.337Z,3.74
2022-11-06T04:13:57.221Z,3.90
2022-11-06T04:16:32.016Z,3.14
2022-11-06T04:19:01.549Z,3.83
2022-11-06T04:21:45.389Z,3.88
2022-11-06T04:24:43.812Z,3.84
2022-11-06T04:27:30.724Z,3.83
2022-11-06T04:30:09.117Z,3.83
2022-11-06T04:32:59.828Z,3.86
2022-11-06T04:35:39.989Z,3.85
2022-11-06T04:38:14.352Z,3.89
2022-11-06T04:40:52.589Z,3.93
2022-11-06T04:43:29.817Z,3.93
2022-11-06T04:46:02.008Z,3.94
2022-11-06T04:48:32.775Z,3.98
2022-11-06T04:51:05.960Z,4.00
2022-11-06T04:53:36.569Z,4.00
2022-11-06T04:56:11.551Z,4.01
2022-11-06T04:58:40.868Z,3.96
2022-11-06T05:01:10.850Z,3.92
2022-11-06T05:03:40.938Z,3.86
2022-11-06T05:06:10.729Z,3.78
2022-11-06T05:08:40.152Z,3.73
2022-11-06T05:11:09.212Z,3.67
2022-11-06T05:13:38.361Z,3.63
2022-11-06T05:16:08.088Z,3.62
2022-11-06T05:18:36.679Z,3.59
2022-11-06T05:21:24.260Z,3.58
2022-11-06T05:23:52.934Z,3.60
2022-11-06T05:26:21.486Z,3.57
2022-11-06T05:28:50.451Z,3.61
2022-11-06T05:31:19.057Z,3.62
2022-11-06T05:33:47.719Z,3.24
2022-11-06T05:36:17.648Z,3.60
2022-11-06T05:38:46.525Z,3.57
2022-11-06T05:41:15.133Z,3.54
2022-11-06T05:43:43.873Z,3.49
2022-11-06T05:46:35.807Z,3.46
2022-11-06T05:49:01.112Z,3.45
2022-11-06T05:51:31.118Z,3.44
2022-11-06T05:53:59.775Z,3.46
2022-11-06T05:56:28.352Z,3.49
2022-11-06T05:58:57.008Z,3.50
2022-11-06T06:01:25.749Z,3.22
2022-11-06T06:03:54.473Z,3.50
2022-11-06T06:06:23.323Z,3.47
2022-11-06T06:08:53.347Z,3.47
2022-11-06T06:11:22.015Z,3.49
2022-11-06T06:13:50.585Z,3.53
2022-11-06T06:16:19.277Z,3.56
2022-11-06T06:18:51.008Z,3.54
2022-11-06T06:21:19.843Z,3.52
2022-11-06T06:23:48.426Z,3.50
2022-11-06T06:26:18.436Z,3.51
2022-11-06T06:28:50.138Z,3.51
2022-11-06T06:31:18.960Z,3.50
2022-11-06T06:33:47.493Z,3.52
2022-11-06T06:36:16.399Z,3.53
2022-11-06T06:38:45.031Z,3.52
2022-11-06T06:41:13.729Z,3.53
2022-11-06T06:43:43.726Z,3.56
2022-11-06T06:46:12.567Z,3.61
2022-11-06T06:48:41.375Z,3.65
2022-11-06T06:51:10.266Z,3.68
2022-11-06T06:53:38.897Z,3.72
2022-11-06T06:56:08.194Z,3.75
2022-11-06T06:58:36.761Z,3.75
2022-11-06T07:01:10.372Z,3.80
2022-11-06T07:03:39.660Z,3.84
2022-11-06T07:06:09.068Z,3.89
2022-11-06T07:08:37.867Z,3.95
2022-11-06T07:11:08.122Z,3.96
2022-11-06T07:13:37.313Z,4.01
2022-11-06T07:16:09.548Z,4.05
2022-11-06T07:18:39.969Z,4.12
2022-11-06T07:21:10.036Z,4.16
2022-11-06T07:23:39.558Z,4.21
2022-11-06T07:26:08.752Z,4.28
2022-11-06T07:28:37.584Z,4.35
2022-11-06T07:31:10.548Z,4.41
2022-11-06T07:33:39.468Z,4.48
2022-11-06T07:36:09.902Z,4.51
2022-11-06T07:38:41.479Z,4.60
2022-11-06T07:41:12.242Z,4.70
2022-11-06T07:43:41.756Z,4.75
2022-11-06T07:46:13.650Z,4.82
2022-11-06T07:48:42.422Z,4.88
2022-11-06T07:51:12.696Z,4.97
2022-11-06T07:53:41.485Z,5.04
2022-11-06T07:56:10.423Z,5.17
2022-11-06T07:58:39.083Z,5.21
2022-11-06T08:01:08.046Z,5.29
2022-11-06T08:03:38.084Z,5.38
2022-11-06T08:06:07.325Z,5.45
2022-11-06T08:08:36.029Z,5.50
2022-11-06T08:11:05.393Z,5.55
2022-11-06T08:13:35.452Z,5.67
2022-11-06T08:16:08.718Z,5.75
2022-11-06T08:18:39.326Z,5.83
2022-11-06T08:21:09.079Z,5.88
2022-11-06T08:23:37.925Z,6.02
2022-11-06T08:26:07.985Z,6.10
2022-11-06T08:28:36.696Z,6.18
2022-11-06T08:31:06.367Z,6.21
2022-11-06T08:33:37.658Z,6.33
2022-11-06T08:36:07.758Z,6.43
2022-11-06T08:38:37.400Z,6.50
2022-11-06T08:41:07.093Z,6.53
2022-11-06T08:43:36.499Z,6.59
2022-11-06T08:46:09.117Z,6.60
2022-11-06T08:48:39.331Z,6.71
2022-11-06T08:51:08.327Z,6.81
2022-11-06T08:53:37.007Z,6.90
2022-11-06T08:56:06.394Z,6.93
2022-11-06T08:58:36.579Z,7.01
2022-11-06T09:01:05.333Z,7.07
2022-11-06T09:03:34.291Z,7.10
2022-11-06T09:06:06.122Z,7.14
2022-11-06T09:08:34.836Z,7.17
2022-11-06T09:11:08.509Z,7.12
2022-11-06T09:13:37.167Z,7.27
2022-11-06T09:16:10.021Z,7.31
2022-11-06T09:18:41.449Z,7.38
2022-11-06T09:21:11.410Z,7.43
2022-11-06T09:23:40.032Z,7.46
2022-11-06T09:26:08.617Z,7.50
2022-11-06T09:28:37.216Z,7.54
2022-11-06T09:31:05.978Z,7.58
2022-11-06T09:33:34.606Z,7.63
2022-11-06T09:36:06.350Z,7.72
2022-11-06T09:38:36.433Z,7.76
2022-11-06T09:41:05.535Z,7.81
2022-11-06T09:44:05.295Z,7.89
2022-11-06T09:46:38.326Z,7.95
2022-11-06T09:49:15.581Z,8.03
2022-11-06T09:51:51.997Z,8.12
2022-11-06T09:54:27.464Z,8.18
2022-11-06T09:57:03.206Z,8.22
2022-11-06T09:59:37.417Z,8.30
2022-11-06T10:02:22.054Z,8.38
2022-11-06T10:05:02.950Z,8.23
2022-11-06T10:07:36.120Z,8.52
2022-11-06T10:10:13.033Z,8.65
2022-11-06T10:13:04.240Z,8.80
2022-11-06T10:15:43.947Z,8.05
2022-11-06T10:18:20.775Z,8.98
2022-11-06T10:20:54.687Z,8.98
2022-11-06T10:23:37.605Z,9.22
2022-11-06T10:26:15.973Z,9.30
2022-11-06T10:29:39.753Z,9.36
2022-11-06T10:32:46.568Z,9.37
2022-11-06T10:35:20.695Z,9.60
2022-11-06T10:37:54.738Z,9.29
2022-11-06T10:40:27.896Z,9.58
2022-11-06T10:43:22.400Z,9.75
2022-11-06T10:45:57.993Z,9.87
2022-11-06T10:48:34.373Z,9.89
2022-11-06T10:51:26.609Z,9.98
2022-11-06T10:54:08.163Z,10.05
2022-11-06T10:56:58.755Z,9.66
2022-11-06T10:59:29.344Z,10.07
2022-11-06T11:01:58.110Z,10.04
2022-11-06T11:04:26.816Z,10.05
2022-11-06T11:06:55.553Z,10.01
2022-11-06T11:09:32.764Z,10.00
2022-11-06T11:12:02.384Z,10.04
2022-11-06T11:14:34.565Z,10.07
2022-11-06T11:17:09.867Z,9.70
2022-11-06T11:19:41.518Z,10.10
2022-11-06T11:22:22.085Z,10.04
2022-11-06T11:25:02.861Z,10.15
2022-11-06T11:27:33.724Z,10.17
2022-11-06T11:30:06.150Z,10.23
2022-11-06T11:32:35.108Z,10.25
2022-11-06T11:35:12.810Z,10.24
2022-11-06T11:37:41.655Z,10.24
2022-11-06T11:40:36.031Z,10.27
2022-11-06T11:43:24.361Z,10.25
2022-11-06T11:46:18.328Z,10.29
2022-11-06T11:48:50.148Z,10.31
2022-11-06T11:51:33.151Z,10.29
2022-11-06T11:54:08.148Z,10.25
2022-11-06T11:59:38.969Z,10.32
2022-11-06T12:02:25.322Z,10.35
2022-11-06T12:05:00.154Z,10.38
2022-11-06T12:07:31.115Z,10.39
2022-11-06T12:10:01.366Z,10.44
2022-11-06T12:12:34.159Z,10.48
2022-11-06T12:15:21.244Z,10.50
2022-11-06T12:17:59.019Z,10.50
2022-11-06T12:20:38.947Z,10.32
2022-11-06T12:23:17.801Z,10.51
2022-11-06T12:25:57.623Z,10.22
2022-11-06T12:28:30.788Z,10.51
2022-11-06T12:31:08.182Z,10.48
2022-11-06T12:34:04.934Z,10.45
2022-11-06T12:36:37.034Z,10.41
2022-11-06T12:39:14.786Z,10.40
2022-11-06T12:41:48.413Z,10.26
2022-11-06T12:44:18.430Z,10.27
2022-11-06T12:46:59.054Z,10.53
2022-11-06T12:50:13.618Z,10.51
2022-11-06T12:53:24.395Z,10.46
2022-11-06T12:56:00.308Z,10.45
2022-11-06T12:59:02.291Z,10.40
2022-11-06T13:01:52.922Z,9.86
2022-11-06T13:04:43.872Z,10.35
2022-11-06T13:07:51.261Z,10.38
2022-11-06T13:10:42.598Z,10.35
2022-11-06T13:13:36.574Z,10.26
2022-11-06T13:16:14.628Z,10.28
2022-11-06T13:18:53.210Z,10.05
2022-11-06T13:21:31.528Z,9.86
2022-11-06T13:24:08.224Z,10.33
2022-11-06T13:26:43.885Z,10.32
2022-11-06T13:29:18.932Z,10.30
2022-11-06T13:31:59.916Z,9.93
2022-11-06T13:34:31.766Z,10.20
2022-11-06T13:37:01.733Z,10.16
2022-11-06T13:39:38.633Z,10.14
2022-11-06T13:42:14.572Z,10.13
2022-11-06T13:44:43.613Z,10.18
2022-11-06T13:47:23.132Z,10.18
2022-11-06T13:50:07.958Z,9.54
2022-11-06T13:52:47.867Z,10.12
2022-11-06T13:55:26.598Z,10.07
2022-11-06T13:58:42.953Z,10.00
2022-11-06T14:01:31.246Z,9.88
2022-11-06T14:04:41.895Z,9.89
2022-11-06T14:07:12.578Z,9.82
2022-11-06T14:09:46.688Z,9.79
2022-11-06T14:12:21.840Z,9.78
2022-11-06T14:15:13.699Z,9.76
2022-11-06T14:17:42.679Z,9.68
2022-11-06T14:20:32.687Z,9.67
2022-11-06T14:23:52.830Z,9.60
2022-11-06T14:26:43.542Z,9.57
2022-11-06T14:30:03.447Z,9.42
2022-11-06T14:32:49.791Z,9.33
2022-11-06T14:35:53.357Z,9.41
2022-11-06T14:38:42.227Z,9.33
2022-11-06T14:41:57.947Z,9.25
2022-11-06T14:44:44.148Z,9.23
2022-11-06T14:47:27.827Z,9.19
2022-11-06T14:50:05.122Z,9.04
2022-11-06T14:52:46.003Z,9.11
2022-11-06T14:55:30.786Z,8.81
2022-11-06T14:58:14.145Z,8.67
2022-11-06T15:00:52.359Z,8.96
2022-11-06T15:03:32.650Z,8.92
2022-11-06T15:06:09.492Z,8.84
2022-11-06T15:08:57.293Z,8.57
2022-11-06T15:11:59.615Z,8.72
2022-11-06T15:15:09.358Z,8.65
2022-11-06T15:17:38.346Z,8.55
2022-11-06T15:20:28.645Z,8.30
2022-11-06T15:23:08.857Z,8.39
2022-11-06T15:25:49.781Z,8.33
2022-11-06T15:28:24.063Z,8.29
2022-11-06T15:30:57.673Z,8.27
2022-11-06T15:33:33.559Z,8.19
2022-11-06T15:36:12.102Z,8.12
2022-11-06T15:38:44.166Z,8.03
2022-11-06T15:41:17.834Z,7.93
2022-11-06T15:43:51.252Z,7.65
2022-11-06T15:46:24.399Z,7.86
2022-11-06T15:49:10.174Z,7.80
2022-11-06T15:51:42.173Z,7.73
2022-11-06T15:54:31.056Z,7.65
2022-11-06T15:57:01.766Z,7.57
2022-11-06T15:59:30.869Z,7.51
2022-11-06T16:02:05.611Z,7.47
2022-11-06T16:04:35.859Z,7.43
2022-11-06T16:07:06.846Z,7.32
2022-11-06T16:09:37.853Z,7.25
2022-11-06T16:12:07.883Z,7.19
2022-11-06T16:14:44.235Z,7.15
2022-11-06T16:17:18.745Z,7.09
2022-11-06T16:19:50.872Z,6.57
2022-11-06T16:22:28.679Z,6.51
2022-11-06T16:25:01.759Z,6.94
2022-11-06T16:27:36.898Z,6.85
2022-11-06T16:30:07.040Z,6.75
2022-11-06T16:32:41.481Z,6.70
2022-11-06T16:35:31.596Z,6.67
2022-11-06T16:38:41.582Z,6.63
2022-11-06T16:41:34.748Z,6.57
2022-11-06T16:44:30.980Z,6.52
2022-11-06T16:47:15.641Z,6.50
2022-11-06T16:49:50.377Z,6.45
2022-11-06T16:52:27.805Z,6.37
2022-11-06T16:55:00.562Z,6.34
2022-11-06T16:57:33.647Z,6.34
2022-11-06T17:00:06.149Z,6.36
2022-11-06T17:02:39.367Z,6.35
2022-11-06T17:05:15.496Z,6.26
2022-11-06T17:07:46.510Z,6.16
2022-11-06T17:10:43.032Z,6.05
2022-11-06T17:13:18.697Z,6.06
2022-11-06T17:15:49.750Z,6.02
2022-11-06T17:18:21.492Z,5.98
2022-11-06T17:20:57.871Z,5.93
2022-11-06T17:23:28.832Z,5.90
2022-11-06T17:26:02.501Z,5.66
2022-11-06T17:28:33.009Z,5.81
2022-11-06T17:31:02.272Z,5.83
2022-11-06T17:33:31.472Z,5.82
2022-11-06T17:36:00.502Z,5.76
2022-11-06T17:38:29.413Z,5.69
2022-11-06T17:40:58.599Z,5.63
2022-11-06T17:43:27.443Z,5.57
2022-11-06T17:45:57.898Z,5.56
2022-11-06T17:48:26.969Z,5.54
2022-11-06T17:51:14.696Z,5.49
2022-11-06T17:53:43.406Z,5.49
2022-11-06T17:56:12.840Z,5.54
2022-11-06T17:58:41.970Z,5.54
2022-11-06T18:01:12.878Z,5.25
2022-11-06T18:03:45.696Z,5.48
2022-11-06T18:06:16.465Z,5.47
2022-11-06T18:08:45.807Z,5.42
2022-11-06T18:11:15.033Z,5.39
2022-11-06T18:13:45.731Z,5.35
2022-11-06T18:16:21.829Z,5.33
2022-11-06T18:18:51.368Z,5.32
2022-11-06T18:21:21.041Z,5.27
2022-11-06T18:23:50.138Z,5.27
2022-11-06T18:26:21.278Z,5.26
2022-11-06T18:28:50.846Z,5.24
2022-11-06T18:31:22.245Z,5.22
2022-11-06T18:33:51.492Z,5.21
2022-11-06T18:36:21.468Z,5.16
2022-11-06T18:38:50.494Z,5.14
2022-11-06T18:41:21.994Z,5.10
2022-11-06T18:43:56.034Z,5.04
2022-11-06T18:46:27.285Z,4.99
2022-11-06T18:48:57.241Z,4.96
2022-11-06T18:51:35.060Z,4.92
2022-11-06T18:54:07.135Z,4.89
2022-11-06T18:56:38.475Z,4.83
2022-11-06T18:59:10.651Z,4.82
2022-11-06T19:01:41.667Z,4.78
2022-11-06T19:04:11.131Z,4.72
2022-11-06T19:06:40.996Z,4.68
2022-11-06T19:09:10.560Z,4.67
2022-11-06T19:11:39.786Z,4.63
2022-11-06T19:14:08.577Z,4.58
2022-11-06T19:16:37.533Z,4.58
2022-11-06T19:19:08.410Z,4.64
2022-11-06T19:21:37.991Z,4.61
2022-11-06T19:24:07.249Z,4.59
2022-11-06T19:26:36.709Z,4.54
2022-11-06T19:29:08.013Z,4.52
2022-11-06T19:31:39.936Z,4.57
2022-11-06T19:34:13.542Z,4.59
2022-11-06T19:36:42.688Z,4.56
2022-11-06T19:39:13.111Z,4.57
2022-11-06T19:41:41.920Z,4.55
2022-11-06T19:44:11.072Z,4.59
2022-11-06T19:46:39.795Z,4.61
2022-11-06T19:49:13.114Z,4.60
2022-11-06T19:51:43.035Z,4.59
2022-11-06T19:54:12.031Z,4.58
2022-11-06T19:57:27.478Z,4.61
2022-11-06T19:59:29.393Z,4.63
2022-11-06T20:01:58.215Z,4.67
2022-11-06T20:04:28.404Z,4.68
2022-11-06T20:06:57.031Z,4.68
2022-11-06T20:09:25.627Z,4.67
2022-11-06T20:11:54.281Z,4.69
2022-11-06T20:14:22.944Z,4.70
2022-11-06T20:16:51.647Z,4.67
2022-11-06T20:19:20.492Z,4.63
2022-11-06T20:21:50.743Z,4.63
2022-11-06T20:24:19.439Z,4.62
2022-11-06T20:26:48.120Z,4.61
2022-11-06T20:29:16.841Z,4.61
2022-11-06T20:31:45.480Z,4.61
2022-11-06T20:34:14.098Z,4.59
2022-11-06T20:36:42.659Z,4.57
2022-11-06T20:39:14.530Z,4.58
2022-11-06T20:41:43.194Z,4.62
2022-11-06T20:44:11.739Z,4.63
2022-11-06T20:46:40.451Z,4.68
2022-11-06T20:49:09.025Z,4.67
2022-11-06T20:51:59.959Z,4.65
2022-11-06T20:54:27.689Z,4.64
2022-11-06T20:56:56.337Z,4.68
2022-11-06T20:59:25.024Z,4.71
2022-11-06T21:01:54.165Z,4.73
2022-11-06T21:04:23.471Z,4.74
2022-11-06T21:06:52.130Z,4.77
2022-11-06T21:09:22.170Z,4.81
2022-11-06T21:11:52.280Z,4.85
2022-11-06T21:14:20.914Z,4.59
2022-11-06T21:16:49.563Z,4.98
2022-11-06T21:19:18.191Z,5.03
2022-11-06T21:21:47.045Z,5.10
2022-11-06T21:24:15.892Z,5.16
2022-11-06T21:26:44.775Z,5.24
2022-11-06T21:29:15.397Z,5.28
2022-11-06T21:31:49.192Z,5.28
2022-11-06T21:34:19.215Z,5.35
2022-11-06T21:36:48.290Z,5.36
2022-11-06T21:39:19.049Z,5.34
2022-11-06T21:41:48.209Z,5.34
2022-11-06T21:44:19.327Z,5.35
2022-11-06T21:46:48.259Z,5.42
2022-11-06T21:49:16.828Z,5.41
2022-11-06T21:51:45.487Z,5.40
2022-11-06T21:54:31.999Z,5.40
2022-11-06T21:57:00.658Z,5.40
2022-11-06T21:59:31.244Z,5.38
2022-11-06T22:02:00.001Z,5.37
2022-11-06T22:04:28.632Z,5.40
2022-11-06T22:06:57.296Z,5.44
2022-11-06T22:09:26.205Z,5.46
2022-11-06T22:11:54.946Z,5.48
2022-11-06T22:14:23.506Z,5.47
2022-11-06T22:16:54.316Z,5.47
2022-11-06T22:19:22.919Z,5.45
2022-11-06T22:21:51.472Z,5.51
2022-11-06T22:24:20.269Z,5.53
2022-11-06T22:26:48.835Z,5.53
2022-11-06T22:29:17.415Z,5.53
2022-11-06T22:31:46.011Z,5.56
2022-11-06T22:34:16.148Z,5.52
2022-11-06T22:36:44.753Z,5.52
2022-11-06T22:39:14.282Z,5.51
2022-11-06T22:41:43.049Z,5.49
2022-11-06T22:44:12.612Z,5.51
2022-11-06T22:46:41.564Z,5.54
2022-11-06T22:49:10.155Z,5.55
2022-11-06T22:51:40.100Z,5.53
2022-11-06T22:54:08.975Z,5.52
2022-11-06T22:56:37.565Z,5.52
2022-11-06T22:59:09.123Z,5.50
2022-11-06T23:01:42.242Z,5.50
2022-11-06T23:04:15.799Z,5.51
2022-11-06T23:06:46.792Z,5.52
2022-11-06T23:09:15.781Z,5.54
2022-11-06T23:11:47.260Z,5.51
2022-11-06T23:14:16.035Z,5.47
2022-11-06T23:17:00.726Z,5.49
2022-11-06T23:19:31.917Z,5.54
2022-11-06T23:22:19.853Z,5.58
2022-11-06T23:24:48.555Z,5.58
2022-11-06T23:27:17.176Z,5.59
2022-11-06T23:29:45.799Z,5.60
2022-11-06T23:32:14.393Z,5.60
2022-11-06T23:34:43.031Z,5.64
2022-11-06T23:37:12.990Z,5.65
2022-11-06T23:39:41.652Z,5.66
2022-11-06T23:42:10.237Z,5.71
2022-11-06T23:44:56.206Z,5.79
2022-11-06T23:47:24.837Z,5.83
2022-11-06T23:49:53.548Z,5.88
2022-11-06T23:52:24.290Z,5.92
2022-11-06T23:54:52.942Z,5.96
2022-11-06T23:57:22.221Z,5.99
2022-11-06T23:59:50.820Z,6.03
